createdAt,value
2023-11-03T00:00:00.328Z,12.4
2023-11-03T00:10:00.328Z,12.6
2023-11-03T00:20:00.339Z,12.5
2023-11-03T00:30:00.326Z,12.6
2023-11-03T00:40:00.496Z,12.6
2023-11-03T00:50:00.395Z,12.7
2023-11-03T01:00:00.393Z,12.4
2023-11-03T01:10:00.391Z,12.4
2023-11-03T01:20:00.395Z,12.5
2023-11-03T01:30:00.380Z,12.4
2023-11-03T01:40:00.433Z,12.3
2023-11-03T01:50:00.386Z,12.3
2023-11-03T02:00:00.417Z,12.3
2023-11-03T02:10:00.527Z,12.2
2023-11-03T02:20:00.416Z,12.2
2023-11-03T02:30:00.353Z,12.2
2023-11-03T02:40:00.400Z,12.2
2023-11-03T02:50:00.373Z,12.2
2023-11-03T03:00:00.359Z,12.1
2023-11-03T03:10:00.430Z,11.9
2023-11-03T03:20:00.545Z,11.6
2023-11-03T03:30:00.904Z,11.6
2023-11-03T03:40:00.718Z,11.8
2023-11-03T03:50:00.395Z,11.9
2023-11-03T04:00:00.351Z,12.0
2023-11-03T04:10:00.370Z,12.2
2023-11-03T04:20:00.308Z,12.3
2023-11-03T04:30:00.310Z,12.0
2023-11-03T04:40:00.363Z,11.8
2023-11-03T04:50:00.309Z,11.8
2023-11-03T05:00:00.368Z,11.9
2023-11-03T05:10:00.362Z,12.0
2023-11-03T05:20:00.356Z,12.2
2023-11-03T05:30:00.369Z,12.1
2023-11-03T05:40:00.421Z,12.3
2023-11-03T05:50:00.434Z,12.5
2023-11-03T06:00:00.344Z,12.7
2023-11-03T06:10:00.360Z,12.6
2023-11-03T06:20:00.331Z,12.6
2023-11-03T06:30:00.375Z,12.6
2023-11-03T06:40:00.422Z,12.7
2023-11-03T06:50:00.366Z,12.6
2023-11-03T07:00:00.331Z,12.4
2023-11-03T07:10:00.453Z,12.2
2023-11-03T07:20:00.398Z,12.0
2023-11-03T07:30:00.377Z,11.9
2023-11-03T07:40:00.369Z,11.7
2023-11-03T07:50:00.362Z,11.8
2023-11-03T08:00:00.310Z,12.0
2023-11-03T08:10:00.376Z,12.1
2023-11-03T08:20:00.462Z,12.2
2023-11-03T08:30:00.313Z,12.0
2023-11-03T08:40:01.479Z,12.1
2023-11-03T08:50:00.343Z,12.0
2023-11-03T09:00:00.328Z,11.9
2023-11-03T09:10:00.393Z,11.9
2023-11-03T09:20:00.445Z,12.0
2023-11-03T09:30:00.317Z,12.0
2023-11-03T09:40:00.346Z,11.8
2023-11-03T09:50:00.327Z,11.7
2023-11-03T10:00:00.333Z,11.9
2023-11-03T10:10:00.392Z,12.0
2023-11-03T10:20:00.386Z,12.3
2023-11-03T10:30:00.321Z,12.6
2023-11-03T10:40:00.406Z,12.6
2023-11-03T10:50:00.472Z,12.6
2023-11-03T11:00:00.322Z,12.5
2023-11-03T11:10:00.478Z,12.6
2023-11-03T11:20:00.313Z,12.5
2023-11-03T11:30:00.403Z,12.5
2023-11-03T11:40:00.380Z,12.7
2023-11-03T11:50:00.352Z,12.7
2023-11-03T12:00:00.317Z,12.7
2023-11-03T12:10:00.387Z,12.7
2023-11-03T12:20:00.327Z,12.7
2023-11-03T12:30:00.405Z,12.9
2023-11-03T12:40:00.405Z,13.3
2023-11-03T12:50:00.467Z,13.2
2023-11-03T13:00:00.333Z,13.0
2023-11-03T13:10:00.383Z,12.9
2023-11-03T13:20:00.328Z,13.0
2023-11-03T13:30:00.339Z,12.8
2023-11-03T13:40:00.449Z,12.9
2023-11-03T13:50:08.079Z,12.9
2023-11-03T14:00:00.541Z,12.7
2023-11-03T14:10:00.488Z,12.5
2023-11-03T14:20:00.323Z,12.2
2023-11-03T14:30:00.476Z,12.4
2023-11-03T14:40:00.700Z,12.4
2023-11-03T14:50:00.333Z,12.1
2023-11-03T15:00:00.520Z,11.8
2023-11-03T15:10:00.459Z,11.3
2023-11-03T15:20:00.420Z,10.9
2023-11-03T15:30:00.469Z,10.6
2023-11-03T15:40:00.454Z,10.5
2023-11-03T15:50:00.353Z,10.3
2023-11-03T16:00:00.419Z,10.1
2023-11-03T16:10:00.360Z,9.7
2023-11-03T16:20:00.450Z,9.5
2023-11-03T16:30:00.348Z,9.6
2023-11-03T16:40:00.350Z,9.5
2023-11-03T16:50:00.427Z,9.3
2023-11-03T17:00:00.318Z,9.6
2023-11-03T17:10:00.343Z,10.1
2023-11-03T17:20:00.386Z,10.1
2023-11-03T17:30:00.430Z,10.0
2023-11-03T17:40:00.374Z,10.1
2023-11-03T17:50:00.405Z,10.1
2023-11-03T18:00:00.441Z,10.0
2023-11-03T18:10:00.337Z,9.3
2023-11-03T18:20:00.394Z,8.6
2023-11-03T18:30:00.320Z,8.3
2023-11-03T18:40:00.297Z,8.2
2023-11-03T19:00:25.900Z,8.2
2023-11-03T19:10:00.451Z,8.2
2023-11-03T19:20:00.309Z,8.0
2023-11-03T19:30:00.375Z,7.6
2023-11-03T19:40:00.328Z,7.2
2023-11-03T19:50:00.376Z,6.9
2023-11-03T20:00:00.363Z,7.0
2023-11-03T20:10:00.456Z,7.1
2023-11-03T20:20:00.336Z,7.1
2023-11-03T20:30:00.400Z,7.3
2023-11-03T20:40:00.336Z,7.3
2023-11-03T20:50:00.298Z,7.2
2023-11-03T21:00:00.389Z,7.2
2023-11-03T21:10:00.314Z,7.3
2023-11-03T21:20:00.344Z,7.3
2023-11-03T21:30:00.625Z,7.0
2023-11-03T21:40:00.399Z,6.7
2023-11-03T21:50:00.346Z,6.4
2023-11-03T22:00:00.321Z,6.0
2023-11-03T22:10:00.328Z,5.5
2023-11-03T22:20:00.366Z,5.1
2023-11-03T22:30:00.342Z,4.8
2023-11-03T22:40:00.333Z,4.7
2023-11-03T22:50:00.297Z,4.8
2023-11-03T23:00:00.316Z,4.6
2023-11-03T23:10:00.320Z,5.0
2023-11-03T23:20:00.410Z,4.9
2023-11-03T23:30:00.334Z,4.7
2023-11-03T23:40:00.314Z,4.4
2023-11-03T23:50:00.316Z,4.3
